sensor_id;sensor_type;location;lat;lon;timestamp;noise_LAeq;noise_LA_min;noise_LA_max;noise_LA01;noise_LA95
41704;Laerm;861;48.808;9.006;2023-01-29T00:02:12;35.80;34.50;37.08;;
41704;Laerm;861;48.808;9.006;2023-01-29T00:04:38;35.80;34.56;37.01;;
41704;Laerm;861;48.808;9.006;2023-01-29T00:07:04;35.81;34.62;36.97;;
41704;Laerm;861;48.808;9.006;2023-01-29T00:09:30;35.81;34.67;37.13;;
41704;Laerm;861;48.808;9.006;2023-01-29T00:11:57;35.81;34.60;37.19;;
41704;Laerm;861;48.808;9.006;2023-01-29T00:14:23;35.81;34.53;36.88;;
41704;Laerm;861;48.808;9.006;2023-01-29T00:16:49;35.78;34.47;36.84;;
41704;Laerm;861;48.808;9.006;2023-01-29T00:19:15;35.79;34.56;37.05;;
41704;Laerm;861;48.808;9.006;2023-01-29T00:21:42;35.79;34.41;37.07;;
41704;Laerm;861;48.808;9.006;2023-01-29T00:24:08;35.80;34.26;37.17;;
41704;Laerm;861;48.808;9.006;2023-01-29T00:26:34;35.80;34.43;37.17;;
41704;Laerm;861;48.808;9.006;2023-01-29T00:29:00;35.82;34.59;37.17;;
41704;Laerm;861;48.808;9.006;2023-01-29T00:31:28;35.78;34.39;37.64;;
41704;Laerm;861;48.808;9.006;2023-01-29T00:33:54;35.81;34.35;37.28;;
41704;Laerm;861;48.808;9.006;2023-01-29T00:36:22;35.79;34.27;37.21;;
41704;Laerm;861;48.808;9.006;2023-01-29T00:38:57;35.78;34.21;36.96;;
41704;Laerm;861;48.808;9.006;2023-01-29T00:41:31;35.79;34.44;37.08;;
41704;Laerm;861;48.808;9.006;2023-01-29T00:44:17;35.77;34.30;37.15;;
41704;Laerm;861;48.808;9.006;2023-01-29T00:47:05;35.78;34.37;37.30;;
41704;Laerm;861;48.808;9.006;2023-01-29T00:49:50;35.78;34.28;37.03;;
41704;Laerm;861;48.808;9.006;2023-01-29T00:52:16;35.79;34.49;37.11;;
41704;Laerm;861;48.808;9.006;2023-01-29T00:54:50;35.77;34.60;36.96;;
41704;Laerm;861;48.808;9.006;2023-01-29T00:57:16;35.77;34.53;37.21;;
41704;Laerm;861;48.808;9.006;2023-01-29T00:59:42;35.76;34.29;37.07;;
41704;Laerm;861;48.808;9.006;2023-01-29T01:02:08;35.76;34.32;36.93;;
41704;Laerm;861;48.808;9.006;2023-01-29T01:04:53;35.76;34.36;36.87;;
41704;Laerm;861;48.808;9.006;2023-01-29T01:07:20;35.76;34.45;37.01;;
41704;Laerm;861;48.808;9.006;2023-01-29T01:09:46;35.77;34.40;37.12;;
41704;Laerm;861;48.808;9.006;2023-01-29T01:12:31;35.76;34.47;36.92;;
41704;Laerm;861;48.808;9.006;2023-01-29T01:14:57;35.75;34.48;36.88;;
41704;Laerm;861;48.808;9.006;2023-01-29T01:17:24;35.77;34.39;36.97;;
41704;Laerm;861;48.808;9.006;2023-01-29T01:19:50;35.78;34.46;36.95;;
41704;Laerm;861;48.808;9.006;2023-01-29T01:22:17;35.76;34.42;37.14;;
41704;Laerm;861;48.808;9.006;2023-01-29T01:24:43;35.76;34.22;36.88;;
41704;Laerm;861;48.808;9.006;2023-01-29T01:27:09;35.77;34.53;36.98;;
41704;Laerm;861;48.808;9.006;2023-01-29T01:29:35;35.76;34.48;36.95;;
41704;Laerm;861;48.808;9.006;2023-01-29T01:32:01;35.78;34.18;36.81;;
41704;Laerm;861;48.808;9.006;2023-01-29T01:34:28;35.78;34.38;36.86;;
41704;Laerm;861;48.808;9.006;2023-01-29T01:36:55;35.76;34.47;36.96;;
41704;Laerm;861;48.808;9.006;2023-01-29T01:39:23;35.77;34.56;37.06;;
41704;Laerm;861;48.808;9.006;2023-01-29T01:41:52;35.76;34.32;36.86;;
41704;Laerm;861;48.808;9.006;2023-01-29T01:45:02;35.76;34.54;36.97;;
41704;Laerm;861;48.808;9.006;2023-01-29T01:47:48;35.77;34.54;36.98;;
41704;Laerm;861;48.808;9.006;2023-01-29T01:50:45;35.76;34.47;37.09;;
41704;Laerm;861;48.808;9.006;2023-01-29T01:53:36;35.76;34.35;37.02;;
41704;Laerm;861;48.808;9.006;2023-01-29T01:56:33;35.77;34.47;36.94;;
41704;Laerm;861;48.808;9.006;2023-01-29T01:59:18;35.77;34.41;36.93;;
41704;Laerm;861;48.808;9.006;2023-01-29T02:01:52;35.76;34.43;36.89;;
41704;Laerm;861;48.808;9.006;2023-01-29T02:04:25;35.75;34.55;37.21;;
41704;Laerm;861;48.808;9.006;2023-01-29T02:07:15;35.76;34.45;36.90;;
41704;Laerm;861;48.808;9.006;2023-01-29T02:10:11;35.77;34.47;36.94;;
41704;Laerm;861;48.808;9.006;2023-01-29T02:12:44;35.77;34.39;37.05;;
41704;Laerm;861;48.808;9.006;2023-01-29T02:15:13;35.75;34.52;36.88;;
41704;Laerm;861;48.808;9.006;2023-01-29T02:17:39;35.74;34.40;37.12;;
41704;Laerm;861;48.808;9.006;2023-01-29T02:20:28;35.74;34.53;36.89;;
41704;Laerm;861;48.808;9.006;2023-01-29T02:27:04;35.75;34.16;36.93;;
41704;Laerm;861;48.808;9.006;2023-01-29T02:30:16;35.76;34.29;37.09;;
41704;Laerm;861;48.808;9.006;2023-01-29T02:39:27;35.75;34.23;37.08;;
41704;Laerm;861;48.808;9.006;2023-01-29T02:42:31;35.76;34.30;37.10;;
41704;Laerm;861;48.808;9.006;2023-01-29T02:45:53;35.76;34.26;37.05;;
41704;Laerm;861;48.808;9.006;2023-01-29T02:48:57;35.74;34.34;37.10;;
41704;Laerm;861;48.808;9.006;2023-01-29T02:52:02;35.75;34.36;37.23;;
41704;Laerm;861;48.808;9.006;2023-01-29T02:55:02;35.75;34.45;36.98;;
41704;Laerm;861;48.808;9.006;2023-01-29T02:57:43;35.74;34.50;37.01;;
41704;Laerm;861;48.808;9.006;2023-01-29T03:00:34;35.75;34.44;37.05;;
41704;Laerm;861;48.808;9.006;2023-01-29T03:03:35;35.75;34.45;37.24;;
41704;Laerm;861;48.808;9.006;2023-01-29T03:06:48;35.74;34.34;36.90;;
41704;Laerm;861;48.808;9.006;2023-01-29T03:09:47;35.74;34.26;36.89;;
41704;Laerm;861;48.808;9.006;2023-01-29T03:12:28;35.76;34.32;37.06;;
41704;Laerm;861;48.808;9.006;2023-01-29T03:15:38;35.77;34.44;37.06;;
41704;Laerm;861;48.808;9.006;2023-01-29T03:18:19;35.76;34.54;36.91;;
41704;Laerm;861;48.808;9.006;2023-01-29T03:21:01;35.75;34.43;37.06;;
41704;Laerm;861;48.808;9.006;2023-01-29T03:23:53;35.73;34.34;37.17;;
41704;Laerm;861;48.808;9.006;2023-01-29T03:26:43;35.73;34.43;36.96;;
41704;Laerm;861;48.808;9.006;2023-01-29T03:29:37;35.76;34.42;36.85;;
41704;Laerm;861;48.808;9.006;2023-01-29T03:32:29;35.78;34.56;36.96;;
41704;Laerm;861;48.808;9.006;2023-01-29T03:35:06;35.77;34.39;37.15;;
41704;Laerm;861;48.808;9.006;2023-01-29T03:37:47;35.76;34.47;37.07;;
41704;Laerm;861;48.808;9.006;2023-01-29T03:40:15;35.74;34.42;36.79;;
41704;Laerm;861;48.808;9.006;2023-01-29T03:47:13;35.76;34.07;36.97;;
41704;Laerm;861;48.808;9.006;2023-01-29T03:53:42;35.75;34.26;37.09;;
41704;Laerm;861;48.808;9.006;2023-01-29T03:59:39;35.73;34.48;36.94;;
41704;Laerm;861;48.808;9.006;2023-01-29T04:02:26;35.74;34.48;37.07;;
41704;Laerm;861;48.808;9.006;2023-01-29T04:05:15;35.73;34.41;36.96;;
41704;Laerm;861;48.808;9.006;2023-01-29T04:07:52;35.72;34.13;37.09;;
41704;Laerm;861;48.808;9.006;2023-01-29T04:10:27;35.73;34.44;37.01;;
41704;Laerm;861;48.808;9.006;2023-01-29T04:13:12;35.72;34.43;36.91;;
41704;Laerm;861;48.808;9.006;2023-01-29T04:15:57;35.71;34.41;37.00;;
41704;Laerm;861;48.808;9.006;2023-01-29T04:18:25;35.71;34.32;36.75;;
41704;Laerm;861;48.808;9.006;2023-01-29T04:20:53;35.72;34.40;37.14;;
41704;Laerm;861;48.808;9.006;2023-01-29T04:23:26;35.72;34.59;36.93;;
41704;Laerm;861;48.808;9.006;2023-01-29T04:29:38;35.72;34.51;36.81;;
41704;Laerm;861;48.808;9.006;2023-01-29T04:32:39;35.72;34.22;36.92;;
41704;Laerm;861;48.808;9.006;2023-01-29T04:36:21;35.71;34.29;36.99;;
41704;Laerm;861;48.808;9.006;2023-01-29T04:39:19;35.70;34.15;37.12;;
41704;Laerm;861;48.808;9.006;2023-01-29T04:46:15;35.72;34.41;36.91;;
41704;Laerm;861;48.808;9.006;2023-01-29T04:49:16;35.72;34.46;36.82;;
41704;Laerm;861;48.808;9.006;2023-01-29T04:52:49;35.73;34.48;37.01;;
41704;Laerm;861;48.808;9.006;2023-01-29T04:56:02;35.71;34.01;37.00;;
41704;Laerm;861;48.808;9.006;2023-01-29T04:58:50;35.70;34.37;36.92;;
41704;Laerm;861;48.808;9.006;2023-01-29T05:01:29;35.70;34.41;37.11;;
41704;Laerm;861;48.808;9.006;2023-01-29T05:04:09;35.71;34.40;36.98;;
41704;Laerm;861;48.808;9.006;2023-01-29T05:06:41;35.72;34.04;37.01;;
41704;Laerm;861;48.808;9.006;2023-01-29T05:09:13;35.72;34.38;37.00;;
41704;Laerm;861;48.808;9.006;2023-01-29T05:11:44;35.71;34.25;36.86;;
41704;Laerm;861;48.808;9.006;2023-01-29T05:14:19;35.69;34.50;36.86;;
41704;Laerm;861;48.808;9.006;2023-01-29T05:16:56;35.71;34.41;37.01;;
41704;Laerm;861;48.808;9.006;2023-01-29T05:19:25;35.70;34.27;37.01;;
41704;Laerm;861;48.808;9.006;2023-01-29T05:21:53;35.71;34.19;37.29;;
41704;Laerm;861;48.808;9.006;2023-01-29T05:24:26;35.71;34.44;37.18;;
41704;Laerm;861;48.808;9.006;2023-01-29T05:26:54;35.71;34.51;36.93;;
41704;Laerm;861;48.808;9.006;2023-01-29T05:29:46;35.70;34.42;36.88;;
41704;Laerm;861;48.808;9.006;2023-01-29T05:32:15;35.70;34.03;36.82;;
41704;Laerm;861;48.808;9.006;2023-01-29T05:34:41;35.69;34.44;36.95;;
41704;Laerm;861;48.808;9.006;2023-01-29T05:37:09;35.68;34.31;36.91;;
41704;Laerm;861;48.808;9.006;2023-01-29T05:39:36;35.71;34.25;37.05;;
41704;Laerm;861;48.808;9.006;2023-01-29T05:42:02;35.71;34.42;36.82;;
41704;Laerm;861;48.808;9.006;2023-01-29T05:44:28;35.70;34.39;37.02;;
41704;Laerm;861;48.808;9.006;2023-01-29T05:46:54;35.70;34.25;36.88;;
41704;Laerm;861;48.808;9.006;2023-01-29T05:49:21;35.71;34.37;36.94;;
41704;Laerm;861;48.808;9.006;2023-01-29T05:51:47;35.71;34.14;36.98;;
41704;Laerm;861;48.808;9.006;2023-01-29T05:54:13;35.71;34.45;36.87;;
41704;Laerm;861;48.808;9.006;2023-01-29T05:56:39;35.71;34.60;37.13;;
41704;Laerm;861;48.808;9.006;2023-01-29T05:59:06;35.73;34.30;36.92;;
41704;Laerm;861;48.808;9.006;2023-01-29T06:01:32;35.71;34.31;36.88;;
41704;Laerm;861;48.808;9.006;2023-01-29T06:03:58;35.69;34.19;36.86;;
41704;Laerm;861;48.808;9.006;2023-01-29T06:06:25;35.71;34.37;37.03;;
41704;Laerm;861;48.808;9.006;2023-01-29T06:08:51;35.73;34.37;36.97;;
41704;Laerm;861;48.808;9.006;2023-01-29T06:11:17;35.72;34.46;37.12;;
41704;Laerm;861;48.808;9.006;2023-01-29T06:13:47;35.73;34.42;36.92;;
41704;Laerm;861;48.808;9.006;2023-01-29T06:16:14;35.72;34.47;36.86;;
41704;Laerm;861;48.808;9.006;2023-01-29T06:18:42;35.71;34.35;37.05;;
41704;Laerm;861;48.808;9.006;2023-01-29T06:21:13;35.72;34.41;37.11;;
41704;Laerm;861;48.808;9.006;2023-01-29T06:23:40;35.73;34.42;36.93;;
41704;Laerm;861;48.808;9.006;2023-01-29T06:26:12;35.72;34.38;37.09;;
41704;Laerm;861;48.808;9.006;2023-01-29T06:28:39;35.71;34.52;36.89;;
41704;Laerm;861;48.808;9.006;2023-01-29T06:31:07;35.71;34.48;37.01;;
41704;Laerm;861;48.808;9.006;2023-01-29T06:33:33;35.73;34.54;37.00;;
41704;Laerm;861;48.808;9.006;2023-01-29T06:36:04;35.74;34.59;37.15;;
41704;Laerm;861;48.808;9.006;2023-01-29T06:38:32;35.71;34.33;36.96;;
41704;Laerm;861;48.808;9.006;2023-01-29T06:40:58;35.71;34.45;37.03;;
41704;Laerm;861;48.808;9.006;2023-01-29T06:43:25;35.69;34.17;36.86;;
41704;Laerm;861;48.808;9.006;2023-01-29T06:45:56;35.72;34.31;36.99;;
41704;Laerm;861;48.808;9.006;2023-01-29T06:48:24;35.72;34.47;37.08;;
41704;Laerm;861;48.808;9.006;2023-01-29T06:50:51;35.71;34.21;36.99;;
41704;Laerm;861;48.808;9.006;2023-01-29T06:53:20;35.70;34.44;36.84;;
41704;Laerm;861;48.808;9.006;2023-01-29T06:55:53;35.70;34.28;36.96;;
41704;Laerm;861;48.808;9.006;2023-01-29T06:58:21;35.72;34.53;36.99;;
41704;Laerm;861;48.808;9.006;2023-01-29T07:00:47;35.70;34.48;36.78;;
41704;Laerm;861;48.808;9.006;2023-01-29T07:03:14;35.69;34.21;36.91;;
41704;Laerm;861;48.808;9.006;2023-01-29T07:05:40;35.70;34.39;37.02;;
41704;Laerm;861;48.808;9.006;2023-01-29T07:08:06;35.72;34.52;36.87;;
41704;Laerm;861;48.808;9.006;2023-01-29T07:10:34;35.72;34.48;36.97;;
41704;Laerm;861;48.808;9.006;2023-01-29T07:13:01;35.71;34.31;37.00;;
41704;Laerm;861;48.808;9.006;2023-01-29T07:15:27;35.71;34.54;36.86;;
41704;Laerm;861;48.808;9.006;2023-01-29T07:18:02;35.71;34.55;37.08;;
41704;Laerm;861;48.808;9.006;2023-01-29T07:20:30;35.72;34.50;36.98;;
41704;Laerm;861;48.808;9.006;2023-01-29T07:22:57;35.73;34.40;36.96;;
41704;Laerm;861;48.808;9.006;2023-01-29T07:25:25;35.74;34.37;36.78;;
41704;Laerm;861;48.808;9.006;2023-01-29T07:27:51;35.75;34.41;37.12;;
41704;Laerm;861;48.808;9.006;2023-01-29T07:30:17;35.74;34.25;36.92;;
41704;Laerm;861;48.808;9.006;2023-01-29T07:32:43;35.75;34.31;37.21;;
41704;Laerm;861;48.808;9.006;2023-01-29T07:35:10;35.75;34.50;37.15;;
41704;Laerm;861;48.808;9.006;2023-01-29T07:37:36;35.74;34.30;36.86;;
41704;Laerm;861;48.808;9.006;2023-01-29T07:40:03;35.75;34.43;36.93;;
41704;Laerm;861;48.808;9.006;2023-01-29T07:42:39;35.77;34.55;36.94;;
41704;Laerm;861;48.808;9.006;2023-01-29T07:45:09;35.77;34.26;37.00;;
41704;Laerm;861;48.808;9.006;2023-01-29T07:47:36;35.75;34.37;36.95;;
41704;Laerm;861;48.808;9.006;2023-01-29T07:50:05;35.74;34.18;37.12;;
41704;Laerm;861;48.808;9.006;2023-01-29T07:52:33;35.75;34.38;37.18;;
41704;Laerm;861;48.808;9.006;2023-01-29T07:54:59;35.76;34.48;36.92;;
41704;Laerm;861;48.808;9.006;2023-01-29T07:57:25;35.76;34.39;36.88;;
41704;Laerm;861;48.808;9.006;2023-01-29T07:59:51;35.76;34.33;36.96;;
41704;Laerm;861;48.808;9.006;2023-01-29T08:02:18;35.76;34.36;36.83;;
41704;Laerm;861;48.808;9.006;2023-01-29T08:04:44;35.75;34.51;36.91;;
41704;Laerm;861;48.808;9.006;2023-01-29T08:07:10;35.76;34.50;36.98;;
41704;Laerm;861;48.808;9.006;2023-01-29T08:09:36;35.74;34.24;37.05;;
41704;Laerm;861;48.808;9.006;2023-01-29T08:12:02;35.75;34.49;37.03;;
41704;Laerm;861;48.808;9.006;2023-01-29T08:14:28;35.75;34.33;37.02;;
41704;Laerm;861;48.808;9.006;2023-01-29T08:16:55;35.75;34.48;36.92;;
41704;Laerm;861;48.808;9.006;2023-01-29T08:19:21;35.76;34.35;37.29;;
41704;Laerm;861;48.808;9.006;2023-01-29T08:21:47;35.75;34.31;36.98;;
41704;Laerm;861;48.808;9.006;2023-01-29T08:24:13;35.75;34.39;36.93;;
41704;Laerm;861;48.808;9.006;2023-01-29T08:26:39;35.75;34.19;37.03;;
41704;Laerm;861;48.808;9.006;2023-01-29T08:29:05;35.75;34.46;36.96;;
41704;Laerm;861;48.808;9.006;2023-01-29T08:31:31;35.73;34.58;36.97;;
41704;Laerm;861;48.808;9.006;2023-01-29T08:33:58;35.74;34.23;36.98;;
41704;Laerm;861;48.808;9.006;2023-01-29T08:36:24;35.76;34.59;37.20;;
41704;Laerm;861;48.808;9.006;2023-01-29T08:38:50;35.77;34.49;36.89;;
41704;Laerm;861;48.808;9.006;2023-01-29T08:41:16;35.76;34.45;37.14;;
41704;Laerm;861;48.808;9.006;2023-01-29T08:43:43;35.77;34.48;37.03;;
41704;Laerm;861;48.808;9.006;2023-01-29T08:46:09;35.76;34.43;37.06;;
41704;Laerm;861;48.808;9.006;2023-01-29T08:48:36;35.78;34.42;36.99;;
41704;Laerm;861;48.808;9.006;2023-01-29T08:51:03;35.79;34.41;36.95;;
41704;Laerm;861;48.808;9.006;2023-01-29T08:53:31;35.80;34.33;37.03;;
41704;Laerm;861;48.808;9.006;2023-01-29T08:55:57;35.79;34.52;37.04;;
41704;Laerm;861;48.808;9.006;2023-01-29T08:58:24;35.81;34.56;36.99;;
41704;Laerm;861;48.808;9.006;2023-01-29T09:00:50;35.81;34.39;37.05;;
41704;Laerm;861;48.808;9.006;2023-01-29T09:03:16;35.82;34.09;37.06;;
41704;Laerm;861;48.808;9.006;2023-01-29T09:05:42;35.81;34.51;37.05;;
41704;Laerm;861;48.808;9.006;2023-01-29T09:08:09;35.81;34.55;36.99;;
41704;Laerm;861;48.808;9.006;2023-01-29T09:10:36;35.82;34.47;37.23;;
41704;Laerm;861;48.808;9.006;2023-01-29T09:13:03;35.82;34.32;37.14;;
41704;Laerm;861;48.808;9.006;2023-01-29T09:15:29;35.83;34.59;36.91;;
41704;Laerm;861;48.808;9.006;2023-01-29T09:17:56;35.85;34.47;36.91;;
41704;Laerm;861;48.808;9.006;2023-01-29T09:20:22;35.85;34.64;37.23;;
41704;Laerm;861;48.808;9.006;2023-01-29T09:22:48;35.85;34.58;37.05;;
41704;Laerm;861;48.808;9.006;2023-01-29T09:25:16;35.85;34.56;36.89;;
41704;Laerm;861;48.808;9.006;2023-01-29T09:27:43;35.84;34.53;36.92;;
41704;Laerm;861;48.808;9.006;2023-01-29T09:30:10;35.84;34.52;37.27;;
41704;Laerm;861;48.808;9.006;2023-01-29T09:32:36;35.86;34.50;37.20;;
41704;Laerm;861;48.808;9.006;2023-01-29T09:35:02;35.85;34.41;37.04;;
41704;Laerm;861;48.808;9.006;2023-01-29T09:37:29;35.87;34.58;37.33;;
41704;Laerm;861;48.808;9.006;2023-01-29T09:39:55;35.88;34.56;36.96;;
41704;Laerm;861;48.808;9.006;2023-01-29T09:42:45;35.89;34.41;37.16;;
41704;Laerm;861;48.808;9.006;2023-01-29T09:45:27;35.88;34.57;37.02;;
41704;Laerm;861;48.808;9.006;2023-01-29T09:48:03;35.90;34.65;37.12;;
41704;Laerm;861;48.808;9.006;2023-01-29T09:50:41;35.89;34.56;36.92;;
41704;Laerm;861;48.808;9.006;2023-01-29T09:56:22;35.91;34.47;38.83;;
41704;Laerm;861;48.808;9.006;2023-01-29T09:58:58;35.90;34.45;37.00;;
41704;Laerm;861;48.808;9.006;2023-01-29T10:01:54;35.91;34.74;37.14;;
41704;Laerm;861;48.808;9.006;2023-01-29T10:05:36;35.92;34.50;37.32;;
41704;Laerm;861;48.808;9.006;2023-01-29T10:12:34;35.99;34.33;42.19;;
41704;Laerm;861;48.808;9.006;2023-01-29T10:16:14;35.99;34.50;41.62;;
41704;Laerm;861;48.808;9.006;2023-01-29T10:25:58;36.04;34.44;37.24;;
41704;Laerm;861;48.808;9.006;2023-01-29T10:28:40;36.07;34.65;37.25;;
41704;Laerm;861;48.808;9.006;2023-01-29T10:31:30;36.05;34.62;37.70;;
41704;Laerm;861;48.808;9.006;2023-01-29T10:34:35;36.05;34.64;37.41;;
41704;Laerm;861;48.808;9.006;2023-01-29T10:37:33;36.04;34.82;37.18;;
41704;Laerm;861;48.808;9.006;2023-01-29T10:40:32;36.07;34.85;38.90;;
41704;Laerm;861;48.808;9.006;2023-01-29T10:46:56;36.05;34.67;37.40;;
41704;Laerm;861;48.808;9.006;2023-01-29T10:59:35;36.08;34.84;37.18;;
41704;Laerm;861;48.808;9.006;2023-01-29T11:02:19;36.06;34.64;37.30;;
41704;Laerm;861;48.808;9.006;2023-01-29T11:04:48;36.05;34.78;37.15;;
41704;Laerm;861;48.808;9.006;2023-01-29T11:07:20;36.05;34.78;37.31;;
41704;Laerm;861;48.808;9.006;2023-01-29T11:10:18;36.04;34.70;37.15;;
41704;Laerm;861;48.808;9.006;2023-01-29T11:12:48;36.07;34.67;37.26;;
41704;Laerm;861;48.808;9.006;2023-01-29T11:15:32;36.08;34.76;37.29;;
41704;Laerm;861;48.808;9.006;2023-01-29T11:18:13;36.08;34.74;37.51;;
41704;Laerm;861;48.808;9.006;2023-01-29T11:20:44;36.09;34.95;37.29;;
41704;Laerm;861;48.808;9.006;2023-01-29T11:23:33;36.10;34.43;37.22;;
41704;Laerm;861;48.808;9.006;2023-01-29T11:26:00;36.09;34.67;37.34;;
41704;Laerm;861;48.808;9.006;2023-01-29T11:28:45;36.08;34.74;37.45;;
41704;Laerm;861;48.808;9.006;2023-01-29T11:31:35;36.07;34.83;37.27;;
41704;Laerm;861;48.808;9.006;2023-01-29T11:34:24;36.08;34.55;37.25;;
41704;Laerm;861;48.808;9.006;2023-01-29T11:37:10;36.07;34.67;37.35;;
41704;Laerm;861;48.808;9.006;2023-01-29T11:39:45;36.10;34.61;37.27;;
41704;Laerm;861;48.808;9.006;2023-01-29T11:42:22;36.13;34.77;37.22;;
41704;Laerm;861;48.808;9.006;2023-01-29T11:44:49;36.15;34.84;37.43;;
41704;Laerm;861;48.808;9.006;2023-01-29T11:47:29;36.17;34.85;37.43;;
41704;Laerm;861;48.808;9.006;2023-01-29T11:50:03;36.16;34.91;37.45;;
41704;Laerm;861;48.808;9.006;2023-01-29T11:52:42;36.15;34.71;37.45;;
41704;Laerm;861;48.808;9.006;2023-01-29T11:55:32;36.11;34.77;37.52;;
41704;Laerm;861;48.808;9.006;2023-01-29T11:58:28;36.10;34.66;37.36;;
41704;Laerm;861;48.808;9.006;2023-01-29T12:00:58;36.11;34.75;38.56;;
41704;Laerm;861;48.808;9.006;2023-01-29T12:03:44;36.13;34.87;37.55;;
41704;Laerm;861;48.808;9.006;2023-01-29T12:06:40;36.13;34.97;37.38;;
41704;Laerm;861;48.808;9.006;2023-01-29T12:09:22;36.13;34.89;37.36;;
41704;Laerm;861;48.808;9.006;2023-01-29T12:11:49;36.18;34.80;37.33;;
41704;Laerm;861;48.808;9.006;2023-01-29T12:14:32;36.22;34.38;37.26;;
41704;Laerm;861;48.808;9.006;2023-01-29T12:17:21;36.28;34.91;37.57;;
41704;Laerm;861;48.808;9.006;2023-01-29T12:20:08;36.34;34.99;37.54;;
41704;Laerm;861;48.808;9.006;2023-01-29T12:23:13;36.40;35.11;37.63;;
41704;Laerm;861;48.808;9.006;2023-01-29T12:29:15;36.47;35.14;37.62;;
41704;Laerm;861;48.808;9.006;2023-01-29T12:35:36;36.60;35.29;37.77;;
41704;Laerm;861;48.808;9.006;2023-01-29T12:38:23;36.65;35.16;37.93;;
41704;Laerm;861;48.808;9.006;2023-01-29T12:44:25;36.65;35.39;37.84;;
41704;Laerm;861;48.808;9.006;2023-01-29T12:47:02;36.62;35.05;37.83;;
41704;Laerm;861;48.808;9.006;2023-01-29T12:49:39;36.61;35.37;37.81;;
41704;Laerm;861;48.808;9.006;2023-01-29T12:52:21;36.61;35.24;37.97;;
41704;Laerm;861;48.808;9.006;2023-01-29T12:55:12;36.61;35.20;37.97;;
41704;Laerm;861;48.808;9.006;2023-01-29T12:57:58;36.59;35.17;37.69;;
41704;Laerm;861;48.808;9.006;2023-01-29T13:00:44;36.63;35.35;37.71;;
41704;Laerm;861;48.808;9.006;2023-01-29T13:03:32;36.63;35.32;37.97;;
41704;Laerm;861;48.808;9.006;2023-01-29T13:06:16;36.62;35.20;39.13;;
41704;Laerm;861;48.808;9.006;2023-01-29T13:09:03;36.64;35.36;38.01;;
41704;Laerm;861;48.808;9.006;2023-01-29T13:11:53;36.66;35.43;37.86;;
41704;Laerm;861;48.808;9.006;2023-01-29T13:14:53;36.70;35.41;37.95;;
41704;Laerm;861;48.808;9.006;2023-01-29T13:17:40;36.73;35.53;38.02;;
41704;Laerm;861;48.808;9.006;2023-01-29T13:20:31;36.72;35.45;37.89;;
41704;Laerm;861;48.808;9.006;2023-01-29T13:23:29;36.68;35.51;37.82;;
41704;Laerm;861;48.808;9.006;2023-01-29T13:25:57;36.71;35.29;37.97;;
41704;Laerm;861;48.808;9.006;2023-01-29T13:28:26;36.72;35.49;38.24;;
41704;Laerm;861;48.808;9.006;2023-01-29T13:36:56;36.69;35.14;38.32;;
41704;Laerm;861;48.808;9.006;2023-01-29T13:39:34;36.65;35.23;37.97;;
41704;Laerm;861;48.808;9.006;2023-01-29T13:42:46;36.65;35.35;37.85;;
41704;Laerm;861;48.808;9.006;2023-01-29T13:45:41;36.68;35.35;37.94;;
41704;Laerm;861;48.808;9.006;2023-01-29T13:48:29;36.71;35.27;38.06;;
41704;Laerm;861;48.808;9.006;2023-01-29T13:51:14;36.73;35.31;38.02;;
41704;Laerm;861;48.808;9.006;2023-01-29T13:54:03;36.75;35.22;38.00;;
41704;Laerm;861;48.808;9.006;2023-01-29T13:59:04;42.64;35.29;77.39;;
41704;Laerm;861;48.808;9.006;2023-01-29T14:04:27;36.67;35.44;37.99;;
41704;Laerm;861;48.808;9.006;2023-01-29T14:07:01;36.62;35.16;37.98;;
41704;Laerm;861;48.808;9.006;2023-01-29T14:12:38;36.61;35.02;38.01;;
41704;Laerm;861;48.808;9.006;2023-01-29T14:15:31;36.59;35.15;37.69;;
41704;Laerm;861;48.808;9.006;2023-01-29T14:18:26;36.57;35.03;37.85;;
41704;Laerm;861;48.808;9.006;2023-01-29T14:21:19;36.51;35.02;37.78;;
41704;Laerm;861;48.808;9.006;2023-01-29T14:23:51;36.49;35.20;37.77;;
41704;Laerm;861;48.808;9.006;2023-01-29T14:26:42;36.48;35.17;37.70;;
41704;Laerm;861;48.808;9.006;2023-01-29T14:29:24;36.48;35.23;37.79;;
41704;Laerm;861;48.808;9.006;2023-01-29T14:32:20;36.49;34.78;37.69;;
41704;Laerm;861;48.808;9.006;2023-01-29T14:35:00;36.45;35.19;37.82;;
41704;Laerm;861;48.808;9.006;2023-01-29T14:37:40;36.41;35.16;38.00;;
41704;Laerm;861;48.808;9.006;2023-01-29T14:40:22;36.37;34.82;37.65;;
41704;Laerm;861;48.808;9.006;2023-01-29T14:43:15;36.43;35.13;37.58;;
41704;Laerm;861;48.808;9.006;2023-01-29T14:45:48;36.46;35.10;37.75;;
41704;Laerm;861;48.808;9.006;2023-01-29T14:48:47;36.42;35.28;37.71;;
41704;Laerm;861;48.808;9.006;2023-01-29T14:51:24;36.45;35.28;37.48;;
41704;Laerm;861;48.808;9.006;2023-01-29T14:54:17;36.44;35.16;37.65;;
41704;Laerm;861;48.808;9.006;2023-01-29T14:57:05;36.47;35.05;37.61;;
41704;Laerm;861;48.808;9.006;2023-01-29T14:59:57;36.55;35.29;37.77;;
41704;Laerm;861;48.808;9.006;2023-01-29T15:02:40;36.56;35.27;38.02;;
41704;Laerm;861;48.808;9.006;2023-01-29T15:05:20;36.55;35.30;37.86;;
41704;Laerm;861;48.808;9.006;2023-01-29T15:08:03;36.58;35.30;37.74;;
41704;Laerm;861;48.808;9.006;2023-01-29T15:10:43;36.62;35.28;37.89;;
41704;Laerm;861;48.808;9.006;2023-01-29T15:13:47;36.62;35.21;37.88;;
41704;Laerm;861;48.808;9.006;2023-01-29T15:19:58;36.62;35.19;37.84;;
41704;Laerm;861;48.808;9.006;2023-01-29T15:22:24;36.63;35.45;37.93;;
41704;Laerm;861;48.808;9.006;2023-01-29T15:25:14;36.56;35.27;37.67;;
41704;Laerm;861;48.808;9.006;2023-01-29T15:27:45;36.50;35.24;37.83;;
41704;Laerm;861;48.808;9.006;2023-01-29T15:30:22;36.46;35.06;37.59;;
41704;Laerm;861;48.808;9.006;2023-01-29T15:32:51;36.46;35.32;37.85;;
41704;Laerm;861;48.808;9.006;2023-01-29T15:35:40;36.46;35.11;37.67;;
41704;Laerm;861;48.808;9.006;2023-01-29T15:38:24;36.45;35.15;37.72;;
41704;Laerm;861;48.808;9.006;2023-01-29T15:41:02;36.43;35.22;37.62;;
41704;Laerm;861;48.808;9.006;2023-01-29T15:43:47;36.41;35.07;37.58;;
41704;Laerm;861;48.808;9.006;2023-01-29T15:46:33;36.41;35.04;37.65;;
41704;Laerm;861;48.808;9.006;2023-01-29T15:49:30;36.37;34.97;38.09;;
41704;Laerm;861;48.808;9.006;2023-01-29T15:52:19;36.35;34.96;37.73;;
41704;Laerm;861;48.808;9.006;2023-01-29T15:54:48;36.30;35.16;37.49;;
41704;Laerm;861;48.808;9.006;2023-01-29T15:57:36;36.27;34.97;37.53;;
41704;Laerm;861;48.808;9.006;2023-01-29T16:00:23;36.20;34.85;37.52;;
41704;Laerm;861;48.808;9.006;2023-01-29T16:02:51;36.10;34.78;37.34;;
41704;Laerm;861;48.808;9.006;2023-01-29T16:05:29;36.04;34.45;37.44;;
41704;Laerm;861;48.808;9.006;2023-01-29T16:08:00;35.96;34.77;38.99;;
41704;Laerm;861;48.808;9.006;2023-01-29T16:10:32;35.90;34.51;37.11;;
41704;Laerm;861;48.808;9.006;2023-01-29T16:13:00;35.89;34.61;37.23;;
41704;Laerm;861;48.808;9.006;2023-01-29T16:16:00;35.83;34.35;37.28;;
41704;Laerm;861;48.808;9.006;2023-01-29T16:18:38;35.74;34.47;37.11;;
41704;Laerm;861;48.808;9.006;2023-01-29T16:21:38;35.68;34.11;36.83;;
41704;Laerm;861;48.808;9.006;2023-01-29T16:24:15;35.62;34.11;36.88;;
41704;Laerm;861;48.808;9.006;2023-01-29T16:26:58;35.57;34.27;36.83;;
41704;Laerm;861;48.808;9.006;2023-01-29T16:29:32;35.55;34.29;36.87;;
41704;Laerm;861;48.808;9.006;2023-01-29T16:32:02;35.53;34.22;36.74;;
41704;Laerm;861;48.808;9.006;2023-01-29T16:34:47;35.55;34.37;36.69;;
41704;Laerm;861;48.808;9.006;2023-01-29T16:37:35;35.55;34.17;36.92;;